Time;durP1;ratioP1;P1;durP2;ratioP2;P2;SDS_P1;SDS_P2;PMS_P1;PMS_P2;Temp;Humidity;BMP_temperature;BMP_pressure;BME280_temperature;BME280_humidity;BME280_pressure;Samples;Min_cycle;Max_cycle;Signal;HPM_P1;HPM_P2
2022/05/04 00:00:37;;;;;;;8.43;6.27;;;10.90;99.90;;;;;;5097266;28;20021;-84
2022/05/04 00:03:03;;;;;;;8.82;6.53;;;10.90;99.90;;;;;;5096991;28;20035;-83
2022/05/04 00:05:28;;;;;;;7.60;6.83;;;10.90;99.90;;;;;;5097315;28;20028;-84
2022/05/04 00:07:54;;;;;;;8.95;6.85;;;10.90;99.90;;;;;;5096882;28;20028;-83
2022/05/04 00:10:19;;;;;;;10.23;7.13;;;10.90;99.90;;;;;;5096963;28;20032;-84
2022/05/04 00:12:45;;;;;;;9.00;6.20;;;10.90;99.90;;;;;;5097240;28;20049;-83
2022/05/04 00:15:11;;;;;;;7.93;7.07;;;10.90;99.90;;;;;;5097038;28;20369;-83
2022/05/04 00:17:37;;;;;;;8.02;6.63;;;10.90;99.90;;;;;;5097236;28;20016;-85
2022/05/04 00:20:03;;;;;;;9.77;7.03;;;10.90;99.90;;;;;;5096664;28;20044;-84
2022/05/04 00:22:28;;;;;;;8.93;6.57;;;10.90;99.90;;;;;;5096815;28;20028;-84
2022/05/04 00:24:54;;;;;;;9.80;7.20;;;10.90;99.90;;;;;;5096755;28;20414;-83
2022/05/04 00:27:20;;;;;;;9.07;7.57;;;10.90;99.90;;;;;;5096798;28;20035;-84
2022/05/04 00:29:46;;;;;;;9.33;6.33;;;10.80;99.90;;;;;;5096506;28;20024;-83
2022/05/04 00:32:13;;;;;;;7.38;6.68;;;10.80;99.90;;;;;;5095239;28;20024;-84
2022/05/04 00:34:39;;;;;;;7.63;6.53;;;10.80;99.90;;;;;;5096383;28;20020;-83
2022/05/04 00:37:05;;;;;;;7.77;6.60;;;10.80;99.90;;;;;;5096337;28;20012;-84
2022/05/04 00:39:31;;;;;;;8.17;6.50;;;10.80;99.90;;;;;;5096583;28;20024;-84
2022/05/04 00:42:11;;;;;;;8.27;6.83;;;10.80;99.90;;;;;;5096699;28;20027;-84
2022/05/04 00:44:37;;;;;;;7.50;5.97;;;10.80;99.90;;;;;;5096189;28;20028;-84
2022/05/04 00:47:04;;;;;;;9.25;6.47;;;10.80;99.90;;;;;;5096565;28;20054;-84
2022/05/04 00:49:30;;;;;;;7.23;6.43;;;10.80;99.90;;;;;;5096043;28;20051;-84
2022/05/04 00:51:56;;;;;;;10.23;6.73;;;10.80;99.90;;;;;;5096202;28;20465;-84
2022/05/04 00:54:21;;;;;;;8.23;7.07;;;10.80;99.90;;;;;;5096022;28;20031;-84
2022/05/04 00:56:47;;;;;;;11.67;7.30;;;10.80;99.90;;;;;;5096069;28;20031;-84
2022/05/04 00:59:13;;;;;;;10.57;6.60;;;10.80;99.90;;;;;;5095989;28;20024;-84
2022/05/04 01:01:39;;;;;;;12.23;6.35;;;10.80;99.90;;;;;;5096145;28;20065;-84
2022/05/04 01:04:05;;;;;;;9.00;7.03;;;10.80;99.90;;;;;;5094538;28;20103;-84
2022/05/04 01:06:30;;;;;;;9.47;7.40;;;10.70;99.90;;;;;;5096146;28;20020;-84
2022/05/04 01:08:58;;;;;;;7.60;6.80;;;10.70;99.90;;;;;;5095923;28;20103;-84
2022/05/04 01:11:24;;;;;;;9.53;7.33;;;10.70;99.90;;;;;;5095741;28;20081;-84
2022/05/04 01:14:08;;;;;;;9.23;7.17;;;10.70;99.90;;;;;;5095923;28;20419;-84
2022/05/04 01:16:35;;;;;;;8.17;7.20;;;10.70;99.90;;;;;;5095731;28;20469;-84
2022/05/04 01:19:02;;;;;;;7.90;7.07;;;10.60;99.90;;;;;;5095481;28;20146;-84
2022/05/04 01:21:28;;;;;;;9.90;7.73;;;10.60;99.90;;;;;;5095554;28;20389;-84
2022/05/04 01:23:54;;;;;;;8.80;7.20;;;10.60;99.90;;;;;;5095631;28;20035;-84
2022/05/04 01:26:20;;;;;;;10.50;7.47;;;10.60;99.90;;;;;;5095759;28;20060;-84
2022/05/04 01:28:47;;;;;;;8.80;7.17;;;10.60;99.90;;;;;;5095392;28;20032;-84
2022/05/04 01:31:12;;;;;;;8.73;7.13;;;10.60;99.90;;;;;;5095393;28;20028;-84
2022/05/04 01:33:39;;;;;;;9.07;7.50;;;10.60;99.90;;;;;;5095537;28;20031;-84
2022/05/04 01:36:06;;;;;;;8.80;7.43;;;10.60;99.90;;;;;;5095273;28;20035;-84
2022/05/04 01:38:32;;;;;;;9.63;7.37;;;10.60;99.90;;;;;;5095293;28;20024;-84
2022/05/04 01:40:57;;;;;;;8.73;7.63;;;10.50;99.90;;;;;;5095674;28;20112;-84
2022/05/04 01:43:23;;;;;;;9.87;7.40;;;10.50;99.90;;;;;;5095428;28;20491;-84
2022/05/04 01:45:49;;;;;;;9.17;7.47;;;10.50;99.90;;;;;;5095134;28;20393;-84
2022/05/04 01:48:15;;;;;;;8.37;7.20;;;10.50;99.90;;;;;;5095142;28;20063;-84
2022/05/04 01:50:40;;;;;;;7.87;6.83;;;10.50;99.90;;;;;;5095192;28;20117;-84
2022/05/04 01:53:06;;;;;;;8.87;7.90;;;10.50;99.90;;;;;;5093669;28;20039;-82
2022/05/04 01:55:40;;;;;;;10.73;8.37;;;10.40;99.90;;;;;;5094687;28;20094;-84
2022/05/04 01:58:07;;;;;;;10.50;7.80;;;10.40;99.90;;;;;;5094900;28;20027;-84
2022/05/04 02:00:32;;;;;;;9.50;8.23;;;10.40;99.90;;;;;;5095526;28;20095;-84
2022/05/04 02:02:58;;;;;;;11.65;7.78;;;10.40;99.90;;;;;;5093949;28;20432;-84
2022/05/04 02:05:25;;;;;;;8.77;7.90;;;10.40;99.90;;;;;;5094918;28;20165;-84
2022/05/04 02:07:50;;;;;;;10.87;7.80;;;10.30;99.90;;;;;;5094995;28;20024;-84
2022/05/04 02:10:16;;;;;;;9.80;8.00;;;10.30;99.90;;;;;;5094474;28;20085;-84
2022/05/04 02:12:42;;;;;;;9.73;8.07;;;10.30;99.90;;;;;;5093192;28;20429;-84
2022/05/04 02:15:10;;;;;;;8.87;7.77;;;10.30;99.90;;;;;;5094808;28;20024;-84
2022/05/04 02:17:36;;;;;;;11.13;8.57;;;10.20;99.90;;;;;;5094380;28;20039;-84
2022/05/04 02:20:03;;;;;;;8.90;8.00;;;10.20;99.90;;;;;;5093163;28;20377;-83
2022/05/04 02:22:29;;;;;;;9.63;7.67;;;10.10;99.90;;;;;;5093004;28;20020;-84
2022/05/04 02:24:55;;;;;;;11.20;8.57;;;10.10;99.90;;;;;;5094264;28;20381;-84
2022/05/04 02:27:20;;;;;;;12.70;7.93;;;10.10;99.90;;;;;;5094357;28;20031;-84
2022/05/04 02:29:46;;;;;;;12.03;8.20;;;10.00;99.90;;;;;;5094249;28;20031;-84
2022/05/04 02:32:12;;;;;;;9.17;7.80;;;10.00;99.90;;;;;;5094295;28;20073;-84
2022/05/04 02:40:07;;;;;;;12.73;9.13;;;9.90;99.90;;;;;;5094113;28;20073;-84
2022/05/04 02:42:32;;;;;;;11.27;9.60;;;9.90;99.90;;;;;;5094616;28;20051;-83
2022/05/04 02:44:58;;;;;;;12.93;9.87;;;9.90;99.90;;;;;;5094733;28;20444;-84
2022/05/04 02:47:24;;;;;;;10.90;8.67;;;9.90;99.90;;;;;;5094692;28;20027;-84
2022/05/04 02:49:49;;;;;;;12.17;8.63;;;9.80;99.90;;;;;;5094862;28;20024;-85
2022/05/04 02:52:15;;;;;;;10.03;8.60;;;9.80;99.90;;;;;;5094573;28;20154;-83
2022/05/04 02:54:41;;;;;;;11.37;8.40;;;9.80;99.90;;;;;;5094073;28;20384;-83
2022/05/04 02:57:07;;;;;;;10.80;7.93;;;9.80;99.90;;;;;;5094202;28;20491;-84
2022/05/04 02:59:32;;;;;;;9.97;7.50;;;9.70;99.90;;;;;;5093999;28;20407;-84
2022/05/04 03:04:42;;;;;;;11.50;8.73;;;9.60;99.90;;;;;;5094088;28;20068;-84
2022/05/04 03:07:08;;;;;;;10.13;8.60;;;9.60;99.90;;;;;;5093717;28;20028;-83
2022/05/04 03:09:33;;;;;;;10.73;8.23;;;9.60;99.90;;;;;;5093840;28;20099;-84
2022/05/04 03:11:59;;;;;;;12.40;8.77;;;9.60;99.90;;;;;;5093494;28;20491;-84
2022/05/04 03:14:27;;;;;;;9.00;8.10;;;9.60;99.90;;;;;;5092959;28;20116;-84
2022/05/04 03:16:54;;;;;;;9.53;8.17;;;9.50;99.90;;;;;;5093056;28;20020;-84
2022/05/04 03:19:21;;;;;;;9.90;8.20;;;9.50;99.90;;;;;;5093467;28;20437;-84
2022/05/04 03:21:47;;;;;;;9.27;8.00;;;9.50;99.90;;;;;;5093458;28;20016;-84
2022/05/04 03:24:12;;;;;;;11.33;8.63;;;9.50;99.90;;;;;;5093310;28;20111;-84
2022/05/04 03:26:38;;;;;;;11.47;8.27;;;9.50;99.90;;;;;;5091993;28;20477;-84
2022/05/04 03:29:04;;;;;;;10.07;8.17;;;9.50;99.90;;;;;;5093441;28;20074;-84
2022/05/04 03:31:30;;;;;;;9.50;8.10;;;9.50;99.90;;;;;;5093210;28;20064;-84
2022/05/04 03:33:56;;;;;;;9.60;8.23;;;9.50;99.90;;;;;;5093216;28;20161;-84
2022/05/04 03:36:22;;;;;;;12.23;8.73;;;9.50;99.90;;;;;;5093421;28;20024;-83
2022/05/04 03:38:47;;;;;;;10.27;8.13;;;9.40;99.90;;;;;;5093178;28;20020;-84
2022/05/04 03:41:14;;;;;;;11.93;8.33;;;9.40;99.90;;;;;;5093528;28;20020;-84
2022/05/04 03:43:39;;;;;;;10.37;8.23;;;9.40;99.90;;;;;;5093296;28;20031;-84
2022/05/04 03:46:12;;;;;;;9.63;8.63;;;9.40;99.90;;;;;;5092734;28;20032;-85
2022/05/04 03:48:38;;;;;;;12.87;8.20;;;9.30;99.90;;;;;;5091161;28;20047;-85
2022/05/04 03:51:04;;;;;;;10.40;9.30;;;9.30;99.90;;;;;;5091219;28;20465;-85
2022/05/04 03:53:30;;;;;;;10.00;8.70;;;9.30;99.90;;;;;;5091244;28;20028;-85
2022/05/04 03:55:55;;;;;;;11.43;9.33;;;9.30;99.90;;;;;;5092449;28;20094;-85
2022/05/04 03:58:21;;;;;;;11.17;8.77;;;9.30;99.90;;;;;;5090845;28;20144;-85
2022/05/04 04:00:47;;;;;;;10.67;9.40;;;9.30;99.90;;;;;;5092287;28;20025;-85
2022/05/04 04:03:12;;;;;;;12.23;9.70;;;9.30;99.90;;;;;;5092234;28;20055;-85
2022/05/04 04:05:38;;;;;;;11.03;9.03;;;9.40;99.90;;;;;;5092353;28;20029;-85
2022/05/04 04:08:03;;;;;;;11.07;9.90;;;9.40;99.90;;;;;;5092277;28;20073;-85
2022/05/04 04:10:29;;;;;;;11.53;9.77;;;9.50;99.90;;;;;;5092228;28;20031;-84
2022/05/04 04:12:54;;;;;;;11.90;9.37;;;9.50;99.90;;;;;;5091850;28;20032;-84
2022/05/04 04:15:20;;;;;;;10.87;8.97;;;9.50;99.90;;;;;;5085274;28;20024;-84
2022/05/04 04:17:48;;;;;;;10.67;8.70;;;9.60;99.90;;;;;;5070837;28;20053;-83
2022/05/04 04:23:05;;;;;;;9.67;8.67;;;9.70;99.90;;;;;;5077892;28;20032;-83
2022/05/04 04:25:31;;;;;;;11.43;8.70;;;9.70;99.90;;;;;;5078245;28;20028;-84
2022/05/04 04:27:57;;;;;;;9.77;8.57;;;9.80;99.90;;;;;;5086354;28;20056;-89
2022/05/04 04:30:23;;;;;;;9.27;8.23;;;9.80;99.90;;;;;;5087894;28;20077;-87
2022/05/04 04:32:48;;;;;;;9.80;8.17;;;9.90;99.90;;;;;;5090310;28;20067;-87
2022/05/04 04:35:14;;;;;;;9.37;8.23;;;9.90;99.90;;;;;;5088399;28;20036;-87
2022/05/04 04:37:40;;;;;;;10.63;8.17;;;9.90;99.90;;;;;;5069913;28;20139;-87
2022/05/04 04:40:06;;;;;;;11.03;8.47;;;10.00;99.90;;;;;;5088290;28;20496;-87
2022/05/04 04:42:32;;;;;;;13.00;9.43;;;10.00;99.90;;;;;;5087164;28;20016;-87
2022/05/04 04:44:57;;;;;;;11.83;10.60;;;10.00;99.90;;;;;;5075774;28;20023;-88
2022/05/04 04:47:25;;;;;;;10.37;8.90;;;10.00;99.90;;;;;;5095829;28;20084;-87
2022/05/04 04:49:51;;;;;;;25.93;19.30;;;10.00;99.90;;;;;;5084931;28;20405;-87
2022/05/04 04:52:17;;;;;;;15.27;13.43;;;10.00;99.90;;;;;;5064468;28;20101;-87
2022/05/04 04:54:43;;;;;;;10.90;8.33;;;10.00;99.90;;;;;;5073369;28;20032;-87
2022/05/04 04:57:09;;;;;;;9.10;8.03;;;10.00;99.90;;;;;;5062139;28;20098;-87
2022/05/04 04:59:34;;;;;;;9.13;8.13;;;10.10;99.90;;;;;;5085741;28;20571;-87
2022/05/04 05:02:12;;;;;;;14.67;13.17;;;10.10;99.90;;;;;;5092261;28;20016;-88
2022/05/04 05:04:37;;;;;;;10.30;8.40;;;10.10;99.90;;;;;;5085076;28;20031;-88
2022/05/04 05:07:03;;;;;;;9.43;8.40;;;10.10;99.90;;;;;;5088798;28;20039;-88
2022/05/04 05:09:29;;;;;;;9.20;8.17;;;10.20;99.90;;;;;;5074516;28;20134;-88
2022/05/04 05:11:54;;;;;;;9.17;7.80;;;10.20;99.90;;;;;;5075688;28;20073;-88
2022/05/04 05:17:05;;;;;;;9.13;7.90;;;10.20;99.90;;;;;;5085598;28;20032;-90
2022/05/04 05:19:30;;;;;;;9.57;8.30;;;10.20;99.90;;;;;;5084433;28;20047;-83
2022/05/04 05:21:56;;;;;;;10.50;7.97;;;10.30;99.90;;;;;;5084549;28;20016;-79
2022/05/04 05:24:21;;;;;;;11.03;8.07;;;10.30;99.90;;;;;;5085678;28;20530;-78
2022/05/04 05:26:47;;;;;;;12.27;7.00;;;10.40;99.90;;;;;;5094731;28;20380;-79
2022/05/04 05:29:12;;;;;;;9.47;7.03;;;10.40;99.90;;;;;;5094695;28;20471;-78
2022/05/04 05:31:38;;;;;;;10.57;6.80;;;10.50;99.90;;;;;;5094267;28;20095;-78
2022/05/04 05:34:06;;;;;;;10.50;6.22;;;10.50;99.90;;;;;;5094195;28;20027;-78
2022/05/04 05:36:31;;;;;;;6.20;5.32;;;10.70;99.90;;;;;;5094233;28;20380;-79
2022/05/04 05:38:59;;;;;;;9.85;6.15;;;10.80;99.90;;;;;;5092788;28;20020;-79
2022/05/04 05:41:27;;;;;;;9.30;6.33;;;10.90;99.90;;;;;;5068824;28;20127;-79
2022/05/04 05:44:09;;;;;;;;;;;;;;;;;;;;;
2022/05/04 05:46:47;;;;;;;;;;;;;;;;;;;;;
2022/05/04 05:49:17;;;;;;;6.50;5.80;;;11.20;99.90;;;;;;5073561;28;20029;-78
2022/05/04 05:51:50;;;;;;;6.75;4.85;;;11.30;99.90;;;;;;5073684;28;20020;-78
2022/05/04 05:54:18;;;;;;;6.15;5.22;;;11.40;99.90;;;;;;5086043;28;20059;-78
2022/05/04 05:56:44;;;;;;;7.20;4.90;;;11.50;99.90;;;;;;5095079;28;20032;-78
2022/05/04 05:59:10;;;;;;;5.13;4.43;;;11.70;99.90;;;;;;5094696;28;20375;-77
2022/05/04 06:01:38;;;;;;;4.72;3.70;;;11.90;99.90;;;;;;5094184;28;20057;-78
2022/05/04 06:04:06;;;;;;;7.30;3.88;;;12.00;99.90;;;;;;5094004;28;20024;-78
2022/05/04 06:06:32;;;;;;;5.95;4.20;;;12.00;99.90;;;;;;5093835;28;20097;-78
2022/05/04 06:09:00;;;;;;;5.38;3.78;;;12.10;99.90;;;;;;5093712;28;20036;-78
2022/05/04 06:11:26;;;;;;;4.72;4.10;;;12.10;99.90;;;;;;5092710;28;20032;-78
2022/05/04 06:13:52;;;;;;;3.80;3.30;;;12.10;99.90;;;;;;5093010;28;20020;-78
2022/05/04 06:16:18;;;;;;;5.97;3.90;;;12.20;99.90;;;;;;5092152;28;20422;-78
2022/05/04 06:18:44;;;;;;;6.40;4.05;;;12.20;99.90;;;;;;5075478;28;20072;-78
2022/05/04 06:21:42;;;;;;;4.35;3.22;;;12.30;99.90;;;;;;5073956;28;20052;-78
2022/05/04 06:24:07;;;;;;;8.00;4.30;;;12.40;99.90;;;;;;4994160;28;20073;-78
2022/05/04 06:26:33;;;;;;;8.73;3.72;;;12.50;99.90;;;;;;5011731;28;20026;-82
2022/05/04 06:28:58;;;;;;;6.53;3.13;;;12.60;99.90;;;;;;5064125;28;20041;-83
2022/05/04 06:34:10;;;;;;;5.88;3.08;;;13.00;99.90;;;;;;5071467;28;20535;-78
2022/05/04 06:36:36;;;;;;;3.55;2.92;;;13.20;99.90;;;;;;5071587;28;20048;-78
2022/05/04 06:39:02;;;;;;;4.85;2.53;;;13.30;99.90;;;;;;5071498;28;20040;-78
2022/05/04 06:41:28;;;;;;;6.65;3.20;;;13.50;99.90;;;;;;5073378;28;20101;-78
2022/05/04 06:43:54;;;;;;;7.47;2.90;;;13.60;99.90;;;;;;5081847;28;20107;-78
2022/05/04 06:46:19;;;;;;;4.22;2.90;;;13.60;99.90;;;;;;5092809;28;20132;-78
2022/05/04 06:48:50;;;;;;;3.53;2.45;;;13.70;99.90;;;;;;5094110;28;20024;-78
2022/05/04 06:51:18;;;;;;;5.18;2.90;;;13.70;99.90;;;;;;5076126;28;20074;-78
2022/05/04 06:53:55;;;;;;;4.28;2.25;;;13.70;99.90;;;;;;5094956;28;20480;-78
2022/05/04 06:56:20;;;;;;;5.40;2.90;;;13.80;99.90;;;;;;5071702;28;20494;-78
2022/05/04 06:58:49;;;;;;;5.10;2.60;;;13.80;99.90;;;;;;5094405;28;20109;-80
2022/05/04 07:01:34;;;;;;;5.35;2.40;;;13.90;99.90;;;;;;5095564;28;20050;-81
2022/05/04 07:04:00;;;;;;;3.60;2.50;;;14.00;99.90;;;;;;5095294;28;20036;-78
2022/05/04 07:06:28;;;;;;;4.15;2.60;;;14.00;99.90;;;;;;5094900;28;20375;-79
2022/05/04 07:08:58;;;;;;;4.05;2.60;;;14.00;99.90;;;;;;5094810;28;20028;-79
2022/05/04 07:11:31;;;;;;;5.55;2.90;;;14.10;99.90;;;;;;5093959;28;20443;-79
2022/05/04 07:13:59;;;;;;;4.03;2.72;;;14.10;99.90;;;;;;5092900;28;20032;-78
2022/05/04 07:16:28;;;;;;;4.60;3.03;;;14.10;99.90;;;;;;5093889;28;20031;-78
2022/05/04 07:18:53;;;;;;;7.03;2.63;;;14.20;99.90;;;;;;5093284;28;20040;-78
2022/05/04 07:21:19;;;;;;;3.63;2.80;;;14.30;99.90;;;;;;5093816;28;20024;-79
2022/05/04 07:23:44;;;;;;;5.25;3.20;;;14.30;99.90;;;;;;5093127;28;20479;-79
2022/05/04 07:26:10;;;;;;;5.28;2.80;;;14.40;99.90;;;;;;5091741;28;20487;-78
2022/05/04 07:28:36;;;;;;;7.68;2.70;;;14.50;99.90;;;;;;5093161;28;20111;-79
2022/05/04 07:31:03;;;;;;;4.25;2.60;;;14.70;99.90;;;;;;5092495;28;20020;-87
2022/05/04 07:33:29;;;;;;;4.20;2.65;;;14.90;99.90;;;;;;5092992;28;20020;-82
2022/05/04 07:35:55;;;;;;;6.43;3.05;;;15.00;99.90;;;;;;5093360;28;20069;-82
2022/05/04 07:38:20;;;;;;;5.93;2.72;;;15.20;99.90;;;;;;5093310;28;20376;-82
2022/05/04 07:43:31;;;;;;;5.40;2.20;;;15.40;99.90;;;;;;5088330;28;20031;-83
2022/05/04 07:45:59;;;;;;;5.57;2.35;;;15.40;99.90;;;;;;5089969;28;20875;-83
2022/05/04 07:48:24;;;;;;;6.25;2.72;;;15.40;99.90;;;;;;5090791;28;20192;-83
2022/05/04 07:50:50;;;;;;;3.88;2.30;;;15.40;99.90;;;;;;5091459;28;20464;-82
2022/05/04 07:53:15;;;;;;;4.65;2.50;;;15.40;99.90;;;;;;5074437;28;20146;-86
2022/05/04 07:55:41;;;;;;;4.38;2.50;;;15.60;99.90;;;;;;5091277;28;20039;-86
2022/05/04 07:58:09;;;;;;;4.10;2.45;;;15.60;99.90;;;;;;5090932;28;20020;-86
2022/05/04 08:06:04;;;;;;;6.18;2.40;;;16.00;99.90;;;;;;5096340;28;20479;-86
2022/05/04 08:08:29;;;;;;;2.83;2.30;;;16.10;99.90;;;;;;5096533;28;20074;-86
2022/05/04 08:10:56;;;;;;;2.67;1.95;;;16.30;99.90;;;;;;5096410;28;20048;-86
2022/05/04 08:13:22;;;;;;;3.25;2.08;;;16.40;99.90;;;;;;5094904;28;20070;-87
2022/05/04 08:15:48;;;;;;;4.38;2.30;;;16.40;99.90;;;;;;5095859;28;20457;-87
2022/05/04 08:18:14;;;;;;;3.22;1.98;;;16.50;99.90;;;;;;5077744;28;20024;-87
2022/05/04 08:20:40;;;;;;;5.05;2.35;;;16.60;99.90;;;;;;5095855;28;20067;-86
2022/05/04 08:23:06;;;;;;;3.85;2.65;;;16.80;99.90;;;;;;5096190;28;20110;-79
2022/05/04 08:25:32;;;;;;;3.13;2.20;;;16.80;99.90;;;;;;5061093;28;20051;-79
2022/05/04 08:27:57;;;;;;;5.38;2.15;;;16.90;99.90;;;;;;5095991;28;20024;-79
2022/05/04 08:30:24;;;;;;;3.13;1.95;;;16.90;99.90;;;;;;5096358;28;20077;-79
2022/05/04 08:32:50;;;;;;;3.45;2.53;;;16.90;99.90;;;;;;5096088;28;20027;-79
2022/05/04 08:35:19;;;;;;;6.13;2.45;;;16.90;99.90;;;;;;5096030;28;20027;-79
2022/05/04 08:37:49;;;;;;;3.17;2.42;;;17.00;99.90;;;;;;5095772;28;20025;-79
2022/05/04 08:40:18;;;;;;;4.57;2.40;;;17.00;99.90;;;;;;5095113;28;20054;-84
2022/05/04 08:42:50;;;;;;;3.10;2.42;;;17.20;99.90;;;;;;5076607;28;20020;-84
2022/05/04 08:45:16;;;;;;;4.80;2.45;;;17.30;99.90;;;;;;5072936;28;20043;-83
2022/05/04 08:47:44;;;;;;;4.32;2.78;;;17.20;99.90;;;;;;5090545;28;20032;-83
2022/05/04 08:50:12;;;;;;;3.00;2.30;;;17.30;99.90;;;;;;5090073;28;20098;-83
2022/05/04 08:52:40;;;;;;;4.63;2.95;;;17.40;99.90;;;;;;5093866;28;20103;-82
2022/05/04 08:55:07;;;;;;;6.53;2.90;;;17.50;99.90;;;;;;5093830;28;20093;-83
2022/05/04 08:57:33;;;;;;;5.40;3.08;;;17.40;99.90;;;;;;5092995;28;20540;-84
2022/05/04 08:59:58;;;;;;;5.57;3.50;;;17.50;99.90;;;;;;5092421;28;20027;-83
2022/05/04 09:02:24;;;;;;;5.25;3.15;;;17.50;99.90;;;;;;5083619;28;20025;-83
2022/05/04 09:04:49;;;;;;;6.28;3.58;;;17.70;99.90;;;;;;5056173;28;20033;-83
2022/05/04 09:07:23;;;;;;;5.03;3.42;;;17.70;99.90;;;;;;5075728;28;20036;-83
2022/05/04 09:09:48;;;;;;;5.05;3.40;;;17.70;99.90;;;;;;5073935;28;20031;-84
2022/05/04 09:12:15;;;;;;;4.35;3.20;;;17.70;99.90;;;;;;5056164;28;20024;-82
2022/05/04 09:14:41;;;;;;;10.13;3.40;;;17.80;99.90;;;;;;5094043;28;20100;-83
2022/05/04 09:17:13;;;;;;;3.75;2.72;;;17.90;99.90;;;;;;5093723;28;20020;-83
2022/05/04 09:20:45;;;;;;;4.68;2.80;;;17.90;99.90;;;;;;5093977;28;20439;-83
2022/05/04 09:22:27;;;;;;;3.03;2.50;;;17.80;99.90;;;;;;5085045;28;20690;-83
2022/05/04 09:24:56;;;;;;;4.68;2.90;;;17.70;99.90;;;;;;5073896;28;20039;-83
2022/05/04 09:27:29;;;;;;;4.18;2.47;;;17.80;99.90;;;;;;5073747;28;20111;-83
2022/05/04 09:29:59;;;;;;;4.03;2.35;;;17.80;99.90;;;;;;5073752;28;20115;-83
2022/05/04 09:32:30;;;;;;;3.80;2.72;;;18.00;99.90;;;;;;5064700;28;20377;-83
2022/05/04 09:34:55;;;;;;;4.45;2.95;;;18.20;99.90;;;;;;5093804;28;20153;-83
2022/05/04 09:45:39;;;;;;;4.75;2.67;;;18.80;99.90;;;;;;5095074;28;20241;-83
2022/05/04 09:48:06;;;;;;;3.75;2.58;;;19.10;99.90;;;;;;5094986;28;20059;-83
2022/05/04 09:50:40;;;;;;;5.38;2.80;;;19.00;99.90;;;;;;5094010;28;20034;-83
2022/05/04 09:53:09;;;;;;;3.72;2.47;;;19.00;99.90;;;;;;5086905;28;20028;-83
2022/05/04 09:55:35;;;;;;;5.25;2.70;;;19.20;99.90;;;;;;5095158;28;20362;-83
2022/05/04 09:58:02;;;;;;;3.78;2.80;;;19.20;99.90;;;;;;5076965;28;20024;-83
2022/05/04 10:00:28;;;;;;;5.13;2.50;;;19.30;99.90;;;;;;5091634;28;20492;-83
2022/05/04 10:02:56;;;;;;;3.53;2.63;;;19.60;99.90;;;;;;5069633;28;20044;-83
2022/05/04 10:05:22;;;;;;;3.50;2.50;;;19.80;99.90;;;;;;5066625;28;20111;-83
2022/05/04 10:07:52;;;;;;;4.82;3.00;;;19.90;99.90;;;;;;5073983;28;20119;-83
2022/05/04 10:10:22;;;;;;;3.88;2.50;;;20.10;99.90;;;;;;5094200;28;20020;-83
2022/05/04 10:12:48;;;;;;;2.78;2.10;;;20.40;99.90;;;;;;5075875;28;20020;-83
2022/05/04 10:15:17;;;;;;;4.10;2.20;;;20.60;99.90;;;;;;5094132;28;20103;-83
2022/05/04 10:18:04;;;;;;;3.58;1.90;;;20.80;99.90;;;;;;5093928;28;20032;-83
2022/05/04 10:20:37;;;;;;;3.53;2.00;;;21.00;99.90;;;;;;5080074;28;20048;-83
2022/05/04 10:23:08;;;;;;;6.72;2.20;;;21.10;99.90;;;;;;5093845;28;20372;-83
2022/05/04 10:25:35;;;;;;;3.97;2.03;;;21.20;99.90;;;;;;5093011;28;20097;-83
2022/05/04 10:28:09;;;;;;;2.75;2.10;;;21.40;99.90;;;;;;5092875;28;20484;-76
2022/05/04 10:30:35;;;;;;;3.22;2.10;;;21.80;99.90;;;;;;5093230;28;20032;-76
2022/05/04 10:33:05;;;;;;;4.85;2.40;;;21.90;99.90;;;;;;5075303;28;20503;-78
2022/05/04 10:35:41;;;;;;;4.65;2.05;;;22.10;99.90;;;;;;5092801;28;20036;-77
2022/05/04 10:38:13;;;;;;;2.70;2.03;;;22.20;99.90;;;;;;5091922;28;20395;-76
2022/05/04 10:40:55;;;;;;;2.30;1.75;;;22.20;99.90;;;;;;5093585;28;20027;-76
2022/05/04 10:43:37;;;;;;;3.08;1.95;;;22.30;99.90;;;;;;5094349;28;20028;-76
2022/05/04 10:46:06;;;;;;;2.30;1.30;;;21.90;99.90;;;;;;5093789;28;20024;-77
2022/05/04 10:48:32;;;;;;;3.20;1.60;;;21.90;99.90;;;;;;5093356;28;20024;-76
2022/05/04 10:51:11;;;;;;;3.58;1.55;;;22.20;99.80;;;;;;5093368;28;20027;-76
2022/05/04 10:53:45;;;;;;;2.30;1.55;;;22.30;99.90;;;;;;5092918;28;20054;-76
2022/05/04 10:56:16;;;;;;;2.83;1.60;;;22.60;99.90;;;;;;5092586;28;20028;-76
2022/05/04 10:58:44;;;;;;;5.00;2.25;;;22.70;99.30;;;;;;5092475;28;20465;-76
2022/05/04 11:01:17;;;;;;;3.70;2.10;;;22.70;99.90;;;;;;5092612;28;20027;-75
2022/05/04 11:03:57;;;;;;;2.53;1.80;;;22.80;99.90;;;;;;5083106;28;20059;-77
2022/05/04 11:06:48;;;;;;;2.08;1.60;;;23.20;99.90;;;;;;5092625;28;20055;-76
2022/05/04 11:09:16;;;;;;;2.22;1.75;;;23.40;97.30;;;;;;5087275;28;20040;-75
2022/05/04 11:11:55;;;;;;;3.42;1.90;;;22.90;94.70;;;;;;5067751;28;20032;-76
2022/05/04 11:14:24;;;;;;;2.47;1.88;;;22.30;97.80;;;;;;5092172;28;20028;-75
2022/05/04 11:16:54;;;;;;;3.05;1.90;;;22.00;97.60;;;;;;5092283;28;20405;-76
2022/05/04 11:19:24;;;;;;;3.22;2.30;;;21.60;97.70;;;;;;5091838;28;20040;-75
2022/05/04 11:21:50;;;;;;;4.32;1.60;;;21.30;96.90;;;;;;5092062;28;20022;-75
2022/05/04 11:24:16;;;;;;;2.60;1.40;;;20.80;99.00;;;;;;5074202;28;20024;-75
2022/05/04 11:26:50;;;;;;;1.88;1.50;;;20.80;98.30;;;;;;5092826;28;20122;-76
2022/05/04 11:29:18;;;;;;;3.55;1.60;;;20.50;96.70;;;;;;5093331;28;20068;-75
2022/05/04 11:31:52;;;;;;;2.70;1.67;;;20.50;98.60;;;;;;5093101;28;20032;-75
2022/05/04 11:34:18;;;;;;;3.00;1.50;;;20.70;99.90;;;;;;5084242;28;20483;-82
2022/05/04 11:36:45;;;;;;;5.53;1.98;;;21.20;99.90;;;;;;5094448;28;20036;-77
2022/05/04 11:39:18;;;;;;;5.28;1.70;;;21.80;98.00;;;;;;5067319;28;20024;-77
2022/05/04 11:41:51;;;;;;;3.35;1.80;;;21.90;99.90;;;;;;5066558;28;20032;-75
2022/05/04 11:44:21;;;;;;;3.30;1.80;;;21.90;99.90;;;;;;5091063;28;20359;-75
2022/05/04 11:46:47;;;;;;;5.43;2.40;;;21.70;99.90;;;;;;5083308;28;20072;-75
2022/05/04 11:49:13;;;;;;;3.67;2.08;;;21.80;99.90;;;;;;5090748;28;20028;-75
2022/05/04 11:51:39;;;;;;;5.72;2.08;;;21.70;99.90;;;;;;5091442;28;20384;-74
2022/05/04 11:54:05;;;;;;;4.90;2.15;;;21.40;99.90;;;;;;5093523;28;20024;-74
2022/05/04 11:56:32;;;;;;;9.85;2.42;;;21.20;99.90;;;;;;5094219;28;20020;-76
2022/05/04 11:58:58;;;;;;;5.88;2.30;;;20.90;99.90;;;;;;5095005;28;20059;-75
2022/05/04 12:01:24;;;;;;;4.38;1.90;;;20.90;99.90;;;;;;5094461;28;20117;-76
2022/05/04 12:03:50;;;;;;;2.95;1.80;;;21.20;99.90;;;;;;5094561;28;20093;-76
2022/05/04 12:06:17;;;;;;;5.60;2.13;;;21.10;99.90;;;;;;5094220;28;20107;-75
2022/05/04 12:08:43;;;;;;;6.03;2.60;;;21.10;99.90;;;;;;5093915;28;20036;-76
2022/05/04 12:11:09;;;;;;;5.35;2.17;;;21.00;99.90;;;;;;5094013;28;20476;-86
2022/05/04 12:13:37;;;;;;;4.38;2.10;;;20.70;99.90;;;;;;5087590;28;20039;-76
2022/05/04 12:16:04;;;;;;;4.28;2.28;;;20.30;99.90;;;;;;5070997;28;20023;-78
2022/05/04 12:18:32;;;;;;;8.75;2.70;;;20.10;99.90;;;;;;5082066;28;20039;-78
2022/05/04 12:21:14;;;;;;;5.82;2.35;;;19.90;99.90;;;;;;5075879;28;20024;-77
2022/05/04 12:23:41;;;;;;;5.22;2.35;;;19.70;99.90;;;;;;5077770;28;20107;-75
2022/05/04 12:26:08;;;;;;;10.32;2.90;;;19.60;99.90;;;;;;5090298;28;20047;-75
2022/05/04 12:28:34;;;;;;;4.03;2.35;;;19.40;99.90;;;;;;5092508;28;20040;-74
2022/05/04 12:33:48;;;;;;;7.32;2.80;;;19.20;99.90;;;;;;5094748;28;20035;-73
2022/05/04 12:36:15;;;;;;;4.75;2.55;;;19.10;99.90;;;;;;5093393;28;20317;-73
2022/05/04 12:38:46;;;;;;;6.30;2.65;;;19.20;99.90;;;;;;5092197;28;20020;-73
2022/05/04 12:41:13;;;;;;;7.72;2.97;;;19.30;99.90;;;;;;5096529;28;20080;-74
2022/05/04 12:43:39;;;;;;;3.53;2.35;;;19.70;99.90;;;;;;5097237;28;20529;-73
2022/05/04 12:46:09;;;;;;;3.50;2.05;;;20.00;99.90;;;;;;5097409;28;20059;-73
2022/05/04 12:48:36;;;;;;;4.47;1.90;;;20.20;99.90;;;;;;5096264;28;20085;-74
2022/05/04 12:51:03;;;;;;;4.28;2.10;;;20.30;99.90;;;;;;5097778;28;20039;-74
2022/05/04 12:53:29;;;;;;;4.90;2.05;;;20.40;99.90;;;;;;5097521;28;20039;-74
2022/05/04 12:58:40;;;;;;;4.10;2.20;;;20.90;99.90;;;;;;5097077;28;20038;-73
2022/05/04 13:01:07;;;;;;;2.70;1.90;;;21.30;99.90;;;;;;5094018;28;20025;-74
2022/05/04 13:03:33;;;;;;;4.60;2.42;;;21.30;99.90;;;;;;5094034;28;20483;-85
2022/05/04 13:06:00;;;;;;;5.00;2.30;;;21.30;99.90;;;;;;5094341;28;20050;-73
2022/05/04 13:08:26;;;;;;;3.40;1.98;;;21.20;99.90;;;;;;5092696;28;20036;-75
2022/05/04 13:10:53;;;;;;;5.63;2.30;;;21.10;99.90;;;;;;5071892;28;20438;-75
2022/05/04 13:13:20;;;;;;;4.65;2.00;;;21.40;99.90;;;;;;5090205;28;20077;-75
2022/05/04 13:15:52;;;;;;;7.38;2.20;;;21.70;99.90;;;;;;5088925;28;20030;-75
2022/05/04 13:18:19;;;;;;;8.95;2.28;;;22.10;99.90;;;;;;5092731;28;20020;-76
2022/05/04 13:20:45;;;;;;;3.90;2.17;;;22.60;99.90;;;;;;5083169;28;20873;-75
2022/05/04 13:23:10;;;;;;;5.63;2.45;;;23.00;99.90;;;;;;5081796;28;20119;-78
2022/05/04 13:25:36;;;;;;;5.15;2.10;;;23.30;99.90;;;;;;5089064;28;20031;-80
2022/05/04 13:28:03;;;;;;;4.05;2.25;;;23.40;99.90;;;;;;5088518;28;20045;-78